Cape Girardeau, Missouri
Current Conditions -  °F | °C
As of 3:53 AM on Friday 21 Nov 2014 (Local Time) from KCGI Reporting Station
Few Clouds Few Clouds  
Wind Chill: 21°   Ceiling: Unl
Heat Index: 28°   Visibility: 10mi
Dew Point: 21°   Wind: 7mph
Humidity: 75%   Direction: 70°ENE
Pressure: 30.37"   Gusts: NA
Location:  37.3°N, 89.54°W
Report Text: KCGI 210953Z AUTO 07006KT 10SM FEW055 M02/M06 A3037 RMK AO2 SLP286 T10221061 TSNO
Loading
Personal Weather Stations






























Interactive Weather Map New forecast layout! Learn more

10-Day Weather Forecast

Advertisements
Track Severe Weather on mobile